Time;durP1;ratioP1;P1;durP2;ratioP2;P2;SDS_P1;SDS_P2;PMS_P1;PMS_P2;Temp;Humidity;BMP_temperature;BMP_pressure;BME280_temperature;BME280_humidity;BME280_pressure;Samples;Min_cycle;Max_cycle;Signal;HPM_P1;HPM_P2
2021/06/12 00:01:41;;;;;;;12.00;7.03;;;;;;;;;;6215289;23;20001;-53
2021/06/12 00:04:08;;;;;;;13.13;6.57;;;;;;;;;;6215683;23;20079;-53
2021/06/12 00:06:35;;;;;;;6.00;3.80;;;;;;;;;;6215451;23;20530;-52
2021/06/12 00:09:01;;;;;;;5.23;3.30;;;;;;;;;;6215728;23;20001;-52
2021/06/12 00:11:28;;;;;;;2.87;1.70;;;;;;;;;;6215294;23;20011;-52
2021/06/12 00:13:55;;;;;;;2.60;1.40;;;;;;;;;;6215310;23;20020;-53
2021/06/12 00:16:34;;;;;;;4.10;2.17;;;;;;;;;;6215396;23;20145;-52
2021/06/12 00:19:05;;;;;;;5.87;2.60;;;;;;;;;;6215200;23;20055;-53
2021/06/12 00:21:44;;;;;;;11.70;4.73;;;;;;;;;;6215021;23;20076;-53
2021/06/12 00:24:15;;;;;;;4.93;1.40;;;;;;;;;;6214428;23;20332;-52
2021/06/12 00:26:42;;;;;;;3.63;1.80;;;;;;;;;;6215082;23;20084;-52
2021/06/12 00:29:10;;;;;;;4.57;1.37;;;;;;;;;;6215171;23;20001;-52
2021/06/12 00:31:37;;;;;;;2.30;1.50;;;;;;;;;;6213926;23;20074;-52
2021/06/12 00:34:04;;;;;;;1.90;1.30;;;;;;;;;;6215022;23;20459;-52
2021/06/12 00:36:36;;;;;;;1.87;1.00;;;;;;;;;;6215514;23;20001;-52
2021/06/12 00:39:07;;;;;;;2.00;1.13;;;;;;;;;;6214301;23;20434;-52
2021/06/12 00:41:37;;;;;;;2.10;1.47;;;;;;;;;;6214800;23;20004;-53
2021/06/12 00:44:04;;;;;;;2.33;1.40;;;;;;;;;;6213154;23;20001;-52
2021/06/12 00:46:31;;;;;;;4.00;1.43;;;;;;;;;;6215223;22;20016;-52
2021/06/12 00:49:14;;;;;;;4.30;1.27;;;;;;;;;;6215195;23;20055;-52
2021/06/12 00:51:44;;;;;;;1.80;1.20;;;;;;;;;;6215405;23;20032;-52
2021/06/12 00:54:11;;;;;;;1.70;1.10;;;;;;;;;;6213382;23;20012;-52
2021/06/12 00:56:38;;;;;;;2.03;1.20;;;;;;;;;;6215079;23;20454;-52
2021/06/12 00:59:04;;;;;;;2.17;1.20;;;;;;;;;;6215105;23;20005;-52
2021/06/12 01:01:31;;;;;;;2.50;1.40;;;;;;;;;;6215106;23;20011;-52
2021/06/12 01:03:58;;;;;;;1.53;1.20;;;;;;;;;;6215081;23;20008;-52
2021/06/12 01:06:40;;;;;;;2.90;1.70;;;;;;;;;;6215130;23;20009;-52
2021/06/12 01:09:12;;;;;;;5.47;2.27;;;;;;;;;;6212195;23;20001;-52
2021/06/12 01:11:45;;;;;;;2.03;1.30;;;;;;;;;;6214634;23;20004;-52
2021/06/12 01:14:15;;;;;;;3.53;1.90;;;;;;;;;;6214783;23;20048;-52
2021/06/12 01:16:53;;;;;;;4.10;1.37;;;;;;;;;;6215017;23;20131;-52
2021/06/12 01:19:42;;;;;;;2.67;1.47;;;;;;;;;;6214223;23;20032;-52
2021/06/12 01:22:42;;;;;;;3.40;1.50;;;;;;;;;;6214499;23;20004;-52
2021/06/12 01:25:24;;;;;;;2.87;1.53;;;;;;;;;;6112377;23;20004;-52
2021/06/12 01:28:04;;;;;;;5.70;1.40;;;;;;;;;;6215321;23;20316;-52
2021/06/12 01:30:35;;;;;;;2.73;1.53;;;;;;;;;;6215061;23;20005;-52
2021/06/12 01:33:17;;;;;;;2.87;1.67;;;;;;;;;;6216406;23;20016;-52
2021/06/12 01:35:54;;;;;;;3.67;1.60;;;;;;;;;;6216870;23;20297;-52
2021/06/12 01:38:44;;;;;;;4.70;1.60;;;;;;;;;;6216170;23;20071;-52
2021/06/12 01:41:27;;;;;;;4.70;2.30;;;;;;;;;;6210359;23;20000;-52
2021/06/12 01:44:07;;;;;;;3.17;1.90;;;;;;;;;;6216595;23;20035;-52
2021/06/12 01:46:34;;;;;;;3.80;2.47;;;;;;;;;;6213107;22;20011;-52
2021/06/12 01:49:10;;;;;;;4.60;2.47;;;;;;;;;;6216813;23;20005;-52
2021/06/12 01:51:44;;;;;;;3.60;2.23;;;;;;;;;;6216664;23;20423;-52
2021/06/12 01:54:28;;;;;;;4.17;2.37;;;;;;;;;;6214417;23;20040;-52
2021/06/12 01:56:55;;;;;;;3.90;2.00;;;;;;;;;;6216730;23;20371;-52
2021/06/12 01:59:23;;;;;;;3.93;2.20;;;;;;;;;;6216613;23;20309;-52
2021/06/12 02:01:56;;;;;;;3.30;2.03;;;;;;;;;;6216649;23;20005;-52
2021/06/12 02:04:41;;;;;;;3.63;2.13;;;;;;;;;;6213962;23;20008;-51
2021/06/12 02:07:08;;;;;;;4.73;1.90;;;;;;;;;;6214060;23;20001;-52
2021/06/12 02:09:51;;;;;;;3.20;2.00;;;;;;;;;;6216472;23;20036;-52
2021/06/12 02:12:24;;;;;;;2.90;1.93;;;;;;;;;;6216183;23;20039;-52
2021/06/12 02:14:51;;;;;;;5.80;2.60;;;;;;;;;;6216218;23;20336;-52
2021/06/12 02:17:20;;;;;;;4.60;2.60;;;;;;;;;;6216435;23;20051;-52
2021/06/12 02:20:02;;;;;;;6.23;2.30;;;;;;;;;;6214922;23;20000;-52
2021/06/12 02:22:29;;;;;;;4.53;2.07;;;;;;;;;;6216399;23;20015;-52
2021/06/12 02:25:07;;;;;;;3.27;1.77;;;;;;;;;;6216329;23;20008;-52
2021/06/12 02:27:40;;;;;;;4.50;1.90;;;;;;;;;;6215983;23;20005;-52
2021/06/12 02:30:16;;;;;;;5.17;2.07;;;;;;;;;;6215584;23;20416;-52
2021/06/12 02:32:45;;;;;;;5.53;2.00;;;;;;;;;;6216146;23;20013;-51
2021/06/12 02:35:12;;;;;;;3.90;2.20;;;;;;;;;;6216205;23;20343;-52
2021/06/12 02:37:40;;;;;;;4.70;1.77;;;;;;;;;;6216716;23;20412;-52
2021/06/12 02:40:29;;;;;;;3.20;1.90;;;;;;;;;;6216044;23;20005;-52
2021/06/12 02:43:02;;;;;;;3.63;2.07;;;;;;;;;;6214940;23;20009;-53
2021/06/12 02:45:29;;;;;;;2.67;1.60;;;;;;;;;;6216249;23;20055;-52
2021/06/12 02:48:03;;;;;;;5.27;1.87;;;;;;;;;;6215545;23;20032;-52
2021/06/12 02:50:42;;;;;;;5.73;1.70;;;;;;;;;;6216249;23;20028;-52
2021/06/12 02:53:22;;;;;;;4.67;1.43;;;;;;;;;;6214787;23;20059;-52
2021/06/12 02:55:53;;;;;;;5.00;1.23;;;;;;;;;;6216182;23;20003;-52
2021/06/12 02:58:23;;;;;;;2.13;1.40;;;;;;;;;;6215620;23;20071;-52
2021/06/12 03:00:51;;;;;;;1.80;1.17;;;;;;;;;;6215961;23;20040;-52
2021/06/12 03:03:24;;;;;;;2.43;1.00;;;;;;;;;;6216122;23;20004;-51
2021/06/12 03:06:05;;;;;;;1.70;1.10;;;;;;;;;;6216432;23;20007;-52
2021/06/12 03:08:45;;;;;;;1.93;1.10;;;;;;;;;;6215743;23;20328;-52
2021/06/12 03:11:19;;;;;;;2.10;1.20;;;;;;;;;;6215834;23;20004;-52
2021/06/12 03:13:47;;;;;;;2.50;1.35;;;;;;;;;;6215794;23;20093;-52
2021/06/12 03:16:15;;;;;;;4.03;1.40;;;;;;;;;;6215926;23;20007;-52
2021/06/12 03:18:46;;;;;;;4.33;1.40;;;;;;;;;;6215845;23;20071;-52
2021/06/12 03:21:13;;;;;;;3.13;1.47;;;;;;;;;;6215726;23;20001;-52
2021/06/12 03:23:40;;;;;;;2.70;1.23;;;;;;;;;;6215789;23;20051;-51
2021/06/12 03:26:10;;;;;;;6.00;1.60;;;;;;;;;;6216118;23;20368;-51
2021/06/12 03:28:37;;;;;;;3.60;1.07;;;;;;;;;;6215703;23;20020;-52
2021/06/12 03:31:05;;;;;;;2.13;1.10;;;;;;;;;;6215688;23;20136;-52
2021/06/12 03:33:32;;;;;;;3.97;1.13;;;;;;;;;;6215582;23;20016;-52
2021/06/12 03:36:00;;;;;;;2.80;1.33;;;;;;;;;;6215752;23;20026;-52
2021/06/12 03:38:27;;;;;;;2.60;1.50;;;;;;;;;;6215687;23;20080;-52
2021/06/12 03:40:54;;;;;;;3.07;1.50;;;;;;;;;;6215581;23;20102;-52
2021/06/12 03:43:22;;;;;;;7.00;1.70;;;;;;;;;;6215677;23;20011;-51
2021/06/12 03:45:51;;;;;;;4.73;1.73;;;;;;;;;;6215659;23;20375;-52
2021/06/12 03:48:21;;;;;;;3.03;1.60;;;;;;;;;;6215324;23;20031;-52
2021/06/12 03:50:48;;;;;;;4.87;1.40;;;;;;;;;;6215523;23;20004;-52
2021/06/12 03:53:15;;;;;;;2.83;1.80;;;;;;;;;;6215386;23;20017;-52
2021/06/12 03:55:42;;;;;;;3.53;1.80;;;;;;;;;;6213688;23;20483;-52
2021/06/12 03:58:09;;;;;;;4.57;2.00;;;;;;;;;;6215548;23;20004;-52
2021/06/12 04:00:36;;;;;;;7.43;2.10;;;;;;;;;;6215358;23;20008;-52
2021/06/12 04:03:03;;;;;;;3.20;1.70;;;;;;;;;;6215456;23;20011;-52
2021/06/12 04:05:30;;;;;;;3.50;1.77;;;;;;;;;;6215468;23;20005;-52
2021/06/12 04:07:57;;;;;;;3.30;1.80;;;;;;;;;;6215501;23;20009;-52
2021/06/12 04:10:24;;;;;;;2.90;1.77;;;;;;;;;;6215413;23;20075;-52
2021/06/12 04:12:50;;;;;;;4.77;2.07;;;;;;;;;;6215229;23;20015;-53
2021/06/12 04:15:23;;;;;;;4.63;2.47;;;;;;;;;;6215360;23;20008;-52
2021/06/12 04:17:58;;;;;;;3.50;1.90;;;;;;;;;;6215427;23;20024;-52
2021/06/12 04:20:25;;;;;;;;;;;;;;;;;;6215716;23;20063;-52
2021/06/12 04:22:52;;;;;;;2.70;1.60;;;;;;;;;;6215369;23;19923;-51
2021/06/12 04:25:19;;;;;;;5.23;2.07;;;;;;;;;;6215366;23;20000;-52
2021/06/12 04:27:46;;;;;;;3.00;1.77;;;;;;;;;;6215658;23;20074;-52
2021/06/12 04:30:15;;;;;;;5.00;2.30;;;;;;;;;;6215200;23;20004;-52
2021/06/12 04:32:41;;;;;;;4.77;2.47;;;;;;;;;;6215258;23;19993;-52
2021/06/12 04:35:08;;;;;;;4.87;2.30;;;;;;;;;;6215294;23;20020;-52
2021/06/12 04:37:35;;;;;;;5.57;2.00;;;;;;;;;;6215268;23;20000;-52
2021/06/12 04:40:02;;;;;;;3.17;1.90;;;;;;;;;;6215048;23;20120;-52
2021/06/12 04:42:29;;;;;;;4.27;2.30;;;;;;;;;;6215241;23;20000;-52
2021/06/12 04:44:55;;;;;;;4.63;2.40;;;;;;;;;;6215197;23;20019;-52
2021/06/12 04:47:22;;;;;;;4.23;2.10;;;;;;;;;;6214992;22;20044;-52
2021/06/12 04:49:49;;;;;;;3.60;2.20;;;;;;;;;;6215205;23;20011;-52
2021/06/12 04:52:16;;;;;;;4.57;2.40;;;;;;;;;;6215113;23;20008;-52
2021/06/12 04:54:43;;;;;;;7.33;1.90;;;;;;;;;;6215066;23;20015;-52
2021/06/12 04:57:09;;;;;;;5.37;2.20;;;;;;;;;;6215124;23;20000;-52
2021/06/12 04:59:36;;;;;;;3.63;2.13;;;;;;;;;;6214958;23;20039;-52
2021/06/12 05:02:03;;;;;;;5.17;2.20;;;;;;;;;;6215029;23;19997;-52
2021/06/12 05:04:30;;;;;;;4.47;1.80;;;;;;;;;;6214992;23;20005;-52
2021/06/12 05:06:56;;;;;;;3.10;1.60;;;;;;;;;;6216846;23;20080;-52
2021/06/12 05:09:23;;;;;;;4.20;3.07;;;;;;;;;;6217275;23;20031;-52
2021/06/12 05:11:50;;;;;;;2.63;1.30;;;;;;;;;;6217106;23;20015;-52
2021/06/12 05:14:18;;;;;;;4.17;1.87;;;;;;;;;;6217120;23;20067;-52
2021/06/12 05:16:44;;;;;;;8.47;2.07;;;;;;;;;;6217106;23;20012;-52
2021/06/12 05:19:11;;;;;;;5.23;2.23;;;;;;;;;;6217042;23;20005;-52
2021/06/12 05:21:39;;;;;;;3.77;1.80;;;;;;;;;;6217064;23;20327;-51
2021/06/12 05:24:06;;;;;;;3.63;1.70;;;;;;;;;;6217008;23;20458;-52
2021/06/12 05:26:33;;;;;;;5.37;1.93;;;;;;;;;;6217131;23;20000;-52
2021/06/12 05:29:00;;;;;;;3.17;1.60;;;;;;;;;;6217008;23;20535;-52
2021/06/12 05:31:27;;;;;;;3.27;1.73;;;;;;;;;;6216863;23;20353;-52
2021/06/12 05:33:53;;;;;;;3.17;1.50;;;;;;;;;;6216803;23;20039;-52
2021/06/12 05:36:20;;;;;;;2.83;1.53;;;;;;;;;;6216910;23;20001;-51
2021/06/12 05:38:47;;;;;;;2.50;1.53;;;;;;;;;;6216903;23;20014;-51
2021/06/12 05:41:14;;;;;;;4.83;1.67;;;;;;;;;;6216586;23;20075;-52
2021/06/12 05:43:40;;;;;;;4.37;1.43;;;;;;;;;;6216791;23;20012;-52
2021/06/12 05:46:07;;;;;;;2.27;1.43;;;;;;;;;;6216854;23;20028;-52
2021/06/12 05:48:34;;;;;;;2.47;1.33;;;;;;;;;;6216573;22;20016;-52
2021/06/12 05:51:02;;;;;;;4.53;1.70;;;;;;;;;;6216773;23;20486;-52
2021/06/12 05:53:28;;;;;;;3.67;1.20;;;;;;;;;;6216698;23;20062;-52
2021/06/12 05:55:55;;;;;;;2.70;1.60;;;;;;;;;;6216781;23;19997;-52
2021/06/12 05:58:22;;;;;;;4.27;1.50;;;;;;;;;;6216798;23;20115;-52
2021/06/12 06:00:49;;;;;;;2.07;1.10;;;;;;;;;;6216648;23;19996;-52
2021/06/12 06:03:15;;;;;;;2.80;1.53;;;;;;;;;;6216800;23;20360;-52
2021/06/12 06:05:42;;;;;;;3.30;1.57;;;;;;;;;;6216746;23;20055;-52
2021/06/12 06:08:09;;;;;;;3.63;1.40;;;;;;;;;;6216753;23;19997;-52
2021/06/12 06:10:36;;;;;;;2.23;1.40;;;;;;;;;;6216476;23;20092;-52
2021/06/12 06:13:03;;;;;;;2.77;1.27;;;;;;;;;;6216462;23;20339;-52
2021/06/12 06:15:30;;;;;;;3.07;1.77;;;;;;;;;;6216513;23;20123;-52
2021/06/12 06:17:57;;;;;;;4.97;1.50;;;;;;;;;;6216050;23;20004;-52
2021/06/12 06:20:24;;;;;;;3.00;1.60;;;;;;;;;;6216643;23;20007;-52
2021/06/12 06:22:51;;;;;;;4.33;1.30;;;;;;;;;;6216492;23;20007;-52
2021/06/12 06:25:18;;;;;;;3.00;1.50;;;;;;;;;;6216432;23;20004;-52
2021/06/12 06:27:45;;;;;;;4.10;1.30;;;;;;;;;;6216413;23;20008;-52
2021/06/12 06:30:12;;;;;;;3.20;1.40;;;;;;;;;;6216252;23;20075;-52
2021/06/12 06:32:45;;;;;;;1.83;1.13;;;;;;;;;;6216118;23;20027;-52
2021/06/12 06:35:14;;;;;;;2.07;1.30;;;;;;;;;;6216405;23;20031;-52
2021/06/12 06:37:41;;;;;;;2.03;1.07;;;;;;;;;;6216275;23;20012;-52
2021/06/12 06:40:09;;;;;;;4.03;1.33;;;;;;;;;;6216018;23;20015;-52
2021/06/12 06:42:36;;;;;;;1.27;1.07;;;;;;;;;;6216250;23;20009;-52
2021/06/12 06:45:03;;;;;;;2.07;1.20;;;;;;;;;;6216290;23;20007;-52
2021/06/12 06:47:30;;;;;;;2.10;1.00;;;;;;;;;;6215864;23;20016;-52
2021/06/12 06:49:57;;;;;;;1.63;1.00;;;;;;;;;;6216240;23;20367;-52
2021/06/12 06:52:24;;;;;;;3.40;1.27;;;;;;;;;;6216214;23;20004;-52
2021/06/12 06:54:51;;;;;;;3.23;1.07;;;;;;;;;;6216015;23;20017;-51
2021/06/12 06:57:17;;;;;;;2.83;1.30;;;;;;;;;;6216119;23;20489;-52
2021/06/12 06:59:44;;;;;;;1.90;1.00;;;;;;;;;;6216142;23;20003;-52
2021/06/12 07:02:11;;;;;;;2.77;1.20;;;;;;;;;;6216046;23;20005;-52
2021/06/12 07:04:38;;;;;;;1.20;0.90;;;;;;;;;;6215985;23;20024;-52
2021/06/12 07:07:05;;;;;;;8.67;2.90;;;;;;;;;;6216175;23;20005;-52
2021/06/12 07:09:32;;;;;;;2.10;1.30;;;;;;;;;;6215888;23;20004;-51
2021/06/12 07:12:03;;;;;;;3.30;1.30;;;;;;;;;;6216053;23;20024;-52
2021/06/12 07:14:30;;;;;;;5.23;1.70;;;;;;;;;;6216000;23;20080;-52
2021/06/12 07:16:57;;;;;;;6.77;1.87;;;;;;;;;;6215853;23;20105;-52
2021/06/12 07:19:24;;;;;;;3.93;1.60;;;;;;;;;;6215831;23;20008;-52
2021/06/12 07:21:51;;;;;;;2.83;1.43;;;;;;;;;;6215789;23;20068;-52
2021/06/12 07:24:17;;;;;;;3.87;1.50;;;;;;;;;;6215827;23;20019;-52
2021/06/12 07:26:44;;;;;;;5.50;1.40;;;;;;;;;;6215925;23;20004;-52
2021/06/12 07:29:11;;;;;;;5.20;1.47;;;;;;;;;;6215760;23;20336;-52
2021/06/12 07:31:42;;;;;;;3.63;1.40;;;;;;;;;;6215852;23;20111;-52
2021/06/12 07:34:09;;;;;;;5.30;1.50;;;;;;;;;;6215671;23;20423;-52
2021/06/12 07:36:36;;;;;;;2.27;1.40;;;;;;;;;;6215807;23;20000;-52
2021/06/12 07:39:04;;;;;;;2.77;1.50;;;;;;;;;;6215548;23;20018;-52
2021/06/12 07:41:31;;;;;;;5.60;1.40;;;;;;;;;;6215792;23;20060;-53
2021/06/12 07:43:58;;;;;;;2.37;1.57;;;;;;;;;;6215721;23;20395;-52
2021/06/12 07:46:25;;;;;;;7.03;2.00;;;;;;;;;;6215689;23;20347;-52
2021/06/12 07:48:53;;;;;;;5.07;2.10;;;;;;;;;;6215302;23;20628;-51
2021/06/12 07:51:20;;;;;;;10.07;1.67;;;;;;;;;;6215540;23;20377;-52
2021/06/12 07:53:46;;;;;;;3.57;1.80;;;;;;;;;;6215335;23;20016;-52
2021/06/12 07:56:13;;;;;;;3.60;1.77;;;;;;;;;;6215609;23;20020;-52
2021/06/12 07:58:40;;;;;;;4.07;1.80;;;;;;;;;;6215661;23;19996;-52
2021/06/12 08:01:07;;;;;;;4.23;1.90;;;;;;;;;;6215418;23;20004;-52
2021/06/12 08:03:35;;;;;;;3.00;2.00;;;;;;;;;;6215523;23;19996;-52
2021/06/12 08:06:02;;;;;;;4.40;1.90;;;;;;;;;;6215515;23;20054;-52
2021/06/12 08:08:29;;;;;;;3.50;1.83;;;;;;;;;;6215470;23;20324;-52
2021/06/12 08:10:56;;;;;;;3.10;1.40;;;;;;;;;;6215588;23;20009;-52
2021/06/12 08:13:22;;;;;;;4.47;1.80;;;;;;;;;;6215323;23;20024;-51
2021/06/12 08:15:49;;;;;;;3.73;1.80;;;;;;;;;;6215401;23;20005;-52
2021/06/12 08:18:16;;;;;;;4.47;2.57;;;;;;;;;;6215579;23;20009;-52
2021/06/12 08:20:43;;;;;;;4.10;1.97;;;;;;;;;;6215368;23;20001;-52
2021/06/12 08:23:10;;;;;;;3.70;1.90;;;;;;;;;;6215354;23;20005;-52
2021/06/12 08:25:37;;;;;;;5.50;2.37;;;;;;;;;;6215436;23;20262;-52
2021/06/12 08:28:05;;;;;;;5.07;1.83;;;;;;;;;;6215324;23;20075;-52
2021/06/12 08:30:36;;;;;;;6.90;2.37;;;;;;;;;;6215338;23;20050;-52
2021/06/12 08:33:04;;;;;;;3.53;1.73;;;;;;;;;;6215331;23;20012;-52
2021/06/12 08:35:31;;;;;;;3.80;1.87;;;;;;;;;;6215264;23;20058;-52
2021/06/12 08:37:58;;;;;;;4.77;2.50;;;;;;;;;;6215288;23;20000;-52
2021/06/12 08:40:25;;;;;;;4.57;2.70;;;;;;;;;;6215074;23;20000;-52
2021/06/12 08:42:53;;;;;;;4.47;2.70;;;;;;;;;;6215218;23;20309;-52
2021/06/12 08:45:22;;;;;;;4.37;2.10;;;;;;;;;;6215143;23;20007;-52
2021/06/12 08:47:49;;;;;;;4.83;2.50;;;;;;;;;;6214964;23;20017;-52
2021/06/12 08:50:18;;;;;;;5.40;2.37;;;;;;;;;;6215086;23;20079;-52
2021/06/12 08:52:44;;;;;;;4.00;1.80;;;;;;;;;;6215026;23;20332;-50
2021/06/12 08:55:12;;;;;;;3.93;1.97;;;;;;;;;;6215041;23;20032;-52
2021/06/12 08:57:39;;;;;;;3.57;2.03;;;;;;;;;;6215131;23;20008;-52
2021/06/12 09:00:07;;;;;;;4.00;1.67;;;;;;;;;;6215004;23;20017;-51
2021/06/12 09:02:52;;;;;;;6.00;2.30;;;;;;;;;;6215056;23;20071;-52
2021/06/12 09:05:21;;;;;;;4.43;2.10;;;;;;;;;;6215192;23;19997;-52
2021/06/12 09:07:48;;;;;;;3.30;2.10;;;;;;;;;;6215082;23;20012;-52
2021/06/12 09:10:24;;;;;;;5.13;1.90;;;;;;;;;;6215140;23;20028;-52
2021/06/12 09:12:51;;;;;;;5.77;1.97;;;;;;;;;;6215144;23;20016;-52
2021/06/12 09:15:19;;;;;;;5.47;2.30;;;;;;;;;;6215038;23;20011;-52
2021/06/12 09:17:50;;;;;;;6.20;2.60;;;;;;;;;;6215035;23;20371;-51
2021/06/12 09:20:18;;;;;;;4.40;1.70;;;;;;;;;;6215010;23;20152;-52
2021/06/12 09:22:45;;;;;;;3.63;1.83;;;;;;;;;;6214989;23;20005;-51
2021/06/12 09:25:12;;;;;;;3.50;2.10;;;;;;;;;;6215438;23;20320;-52
2021/06/12 09:27:39;;;;;;;6.40;2.30;;;;;;;;;;6215042;23;20371;-52
2021/06/12 09:30:08;;;;;;;3.27;2.00;;;;;;;;;;6214828;23;20001;-52
2021/06/12 09:32:44;;;;;;;4.27;2.20;;;;;;;;;;6214896;23;20008;-51
2021/06/12 09:35:11;;;;;;;4.17;2.47;;;;;;;;;;6215133;23;20036;-52
2021/06/12 09:37:40;;;;;;;5.07;2.30;;;;;;;;;;6215048;23;20068;-52
2021/06/12 09:40:08;;;;;;;3.83;2.00;;;;;;;;;;6214758;23;20008;-52
2021/06/12 09:42:46;;;;;;;2.63;1.70;;;;;;;;;;6215088;23;19997;-52
2021/06/12 09:45:13;;;;;;;3.30;1.73;;;;;;;;;;6214981;23;20001;-52
2021/06/12 09:47:40;;;;;;;3.23;2.03;;;;;;;;;;6214574;23;20032;-52
2021/06/12 09:50:08;;;;;;;4.03;1.77;;;;;;;;;;6214895;23;20001;-52
2021/06/12 09:52:51;;;;;;;3.80;2.07;;;;;;;;;;6215338;23;20011;-52
2021/06/12 09:55:26;;;;;;;5.43;1.73;;;;;;;;;;6216589;23;20095;-52
2021/06/12 09:57:53;;;;;;;4.05;1.73;;;;;;;;;;6216674;23;20454;-52
2021/06/12 10:00:31;;;;;;;3.20;2.07;;;;;;;;;;6216906;23;20004;-51
2021/06/12 10:02:58;;;;;;;4.03;2.27;;;;;;;;;;6216724;23;20479;-52
2021/06/12 10:05:26;;;;;;;6.33;2.30;;;;;;;;;;6216608;23;20005;-52
2021/06/12 10:07:53;;;;;;;4.17;2.30;;;;;;;;;;6216912;23;20015;-53
2021/06/12 10:10:20;;;;;;;2.97;1.90;;;;;;;;;;6216949;23;20075;-52
2021/06/12 10:12:47;;;;;;;3.67;2.33;;;;;;;;;;6216505;23;20305;-52
2021/06/12 10:15:15;;;;;;;6.10;1.97;;;;;;;;;;6216622;23;20389;-52
2021/06/12 10:17:43;;;;;;;3.87;2.13;;;;;;;;;;6216578;23;20431;-52
2021/06/12 10:20:11;;;;;;;3.07;1.97;;;;;;;;;;6216444;23;20009;-52
2021/06/12 10:22:42;;;;;;;3.93;2.27;;;;;;;;;;6216857;23;20043;-52
2021/06/12 10:25:10;;;;;;;3.63;2.00;;;;;;;;;;6216445;23;20012;-52
2021/06/12 10:27:37;;;;;;;5.00;2.07;;;;;;;;;;6216368;23;20012;-51
2021/06/12 10:30:04;;;;;;;2.70;1.70;;;;;;;;;;6216341;23;20000;-52
2021/06/12 10:32:31;;;;;;;5.43;1.90;;;;;;;;;;6216516;23;20000;-52
2021/06/12 10:35:02;;;;;;;2.60;1.77;;;;;;;;;;6216273;23;20049;-52
2021/06/12 10:37:29;;;;;;;3.40;2.03;;;;;;;;;;6216350;23;20004;-52
2021/06/12 10:40:06;;;;;;;5.57;2.27;;;;;;;;;;6216391;23;20001;-52
2021/06/12 10:42:32;;;;;;;3.60;2.33;;;;;;;;;;6216416;23;20036;-52
2021/06/12 10:45:03;;;;;;;4.53;2.77;;;;;;;;;;6216350;23;20000;-52
2021/06/12 10:47:38;;;;;;;6.50;2.37;;;;;;;;;;6215859;22;20067;-52
2021/06/12 10:50:28;;;;;;;4.00;2.80;;;;;;;;;;6216206;23;20385;-52
2021/06/12 10:53:13;;;;;;;5.83;2.30;;;;;;;;;;6201082;23;20036;-52
2021/06/12 10:56:06;;;;;;;5.68;1.95;;;;;;;;;;6216140;23;20001;-52
2021/06/12 10:58:36;;;;;;;5.00;2.47;;;;;;;;;;6211304;23;20012;-51
2021/06/12 11:01:22;;;;;;;3.80;2.07;;;;;;;;;;6216374;23;20001;-52
2021/06/12 11:03:58;;;;;;;3.03;2.17;;;;;;;;;;6216254;23;20059;-52
2021/06/12 11:06:34;;;;;;;4.30;2.67;;;;;;;;;;6216375;23;20024;-51
2021/06/12 11:09:21;;;;;;;7.03;2.30;;;;;;;;;;6215968;23;20424;-52
2021/06/12 11:11:49;;;;;;;9.33;2.33;;;;;;;;;;6196111;23;20005;-52
2021/06/12 11:14:24;;;;;;;4.07;2.20;;;;;;;;;;6216035;23;20016;-52
2021/06/12 11:17:10;;;;;;;5.10;2.87;;;;;;;;;;6216212;23;20004;-52
2021/06/12 11:19:44;;;;;;;5.95;2.38;;;;;;;;;;6216039;23;20075;-52
2021/06/12 11:22:23;;;;;;;3.60;2.13;;;;;;;;;;6216008;23;20015;-52
2021/06/12 11:24:51;;;;;;;4.57;2.50;;;;;;;;;;6215872;23;20008;-52
2021/06/12 11:27:24;;;;;;;3.90;2.67;;;;;;;;;;6215989;23;20379;-52
2021/06/12 11:30:09;;;;;;;4.67;2.90;;;;;;;;;;6215829;23;20083;-52
2021/06/12 11:32:36;;;;;;;3.97;2.70;;;;;;;;;;6215849;23;20004;-52
2021/06/12 11:35:03;;;;;;;4.67;2.70;;;;;;;;;;6215822;23;20008;-52
2021/06/12 11:37:30;;;;;;;4.57;2.60;;;;;;;;;;6215852;23;20032;-52
2021/06/12 11:39:58;;;;;;;6.97;3.40;;;;;;;;;;6215623;23;20015;-52
2021/06/12 11:42:26;;;;;;;4.83;3.00;;;;;;;;;;6215807;23;20360;-52
2021/06/12 11:44:53;;;;;;;5.03;2.90;;;;;;;;;;6215777;23;20024;-51
2021/06/12 11:47:26;;;;;;;6.70;3.20;;;;;;;;;;6215711;23;20012;-51
2021/06/12 11:49:53;;;;;;;4.90;3.00;;;;;;;;;;6214118;22;20020;-52
2021/06/12 11:52:19;;;;;;;8.73;3.30;;;;;;;;;;6215644;23;20355;-51
2021/06/12 11:54:46;;;;;;;4.40;2.77;;;;;;;;;;6215638;23;20035;-50
2021/06/12 11:57:13;;;;;;;5.73;3.13;;;;;;;;;;6215666;23;20039;-52
2021/06/12 11:59:41;;;;;;;4.13;2.73;;;;;;;;;;6215530;23;20309;-52
2021/06/12 12:02:08;;;;;;;5.07;2.93;;;;;;;;;;6215598;23;20016;-51
2021/06/12 12:04:36;;;;;;;6.77;3.90;;;;;;;;;;6215563;23;20336;-52
2021/06/12 12:07:05;;;;;;;6.07;3.87;;;;;;;;;;6215466;23;20080;-52
2021/06/12 12:09:34;;;;;;;5.83;3.37;;;;;;;;;;6215363;23;20029;-53
2021/06/12 12:12:02;;;;;;;7.47;4.23;;;;;;;;;;6215430;23;20475;-52
2021/06/12 12:14:33;;;;;;;7.03;3.77;;;;;;;;;;6215284;23;20086;-52
2021/06/12 12:17:00;;;;;;;5.97;3.67;;;;;;;;;;6215744;23;20032;-52
2021/06/12 12:19:27;;;;;;;7.23;4.63;;;;;;;;;;6215314;23;20328;-52
2021/06/12 12:21:55;;;;;;;9.63;4.80;;;;;;;;;;6215404;23;20015;-52
2021/06/12 12:24:22;;;;;;;11.00;5.07;;;;;;;;;;6215603;23;20000;-52
2021/06/12 12:26:53;;;;;;;6.40;4.50;;;;;;;;;;6215405;23;20011;-52
2021/06/12 12:29:22;;;;;;;5.40;3.60;;;;;;;;;;6215356;23;20010;-52
2021/06/12 12:31:49;;;;;;;6.20;4.00;;;;;;;;;;6215392;23;20059;-51
2021/06/12 12:34:28;;;;;;;5.17;3.77;;;;;;;;;;6215313;23;20024;-52
2021/06/12 12:36:55;;;;;;;9.27;4.40;;;;;;;;;;6215419;23;20016;-52
2021/06/12 12:39:22;;;;;;;6.20;4.20;;;;;;;;;;6215257;23;20076;-51
2021/06/12 12:41:53;;;;;;;7.23;4.53;;;;;;;;;;6215274;23;20004;-52
2021/06/12 12:44:20;;;;;;;9.17;5.10;;;;;;;;;;6215190;23;20015;-52
2021/06/12 12:46:55;;;;;;;14.97;6.10;;;;;;;;;;6215347;23;20017;-52
2021/06/12 12:49:32;;;;;;;6.40;4.87;;;;;;;;;;6214784;23;20016;-52
2021/06/12 12:52:00;;;;;;;6.30;4.40;;;;;;;;;;6215336;23;20492;-52
2021/06/12 12:54:29;;;;;;;5.47;3.87;;;;;;;;;;6215192;23;20023;-52
2021/06/12 12:57:00;;;;;;;4.40;3.13;;;;;;;;;;6215365;23;20108;-52
2021/06/12 12:59:27;;;;;;;5.80;4.07;;;;;;;;;;6215109;23;20086;-52
2021/06/12 13:01:54;;;;;;;5.23;3.60;;;;;;;;;;6215362;23;19997;-52
2021/06/12 13:04:32;;;;;;;7.43;3.50;;;;;;;;;;6215168;23;20095;-52
2021/06/12 13:07:06;;;;;;;5.10;3.80;;;;;;;;;;6215136;23;20008;-52
2021/06/12 13:09:33;;;;;;;4.33;3.13;;;;;;;;;;6215036;23;20005;-52
2021/06/12 13:12:04;;;;;;;11.00;3.37;;;;;;;;;;6215083;23;20009;-51
2021/06/12 13:14:30;;;;;;;7.67;3.10;;;;;;;;;;6214975;23;20012;-52
2021/06/12 13:16:58;;;;;;;5.73;2.63;;;;;;;;;;6215138;23;20086;-52
2021/06/12 13:19:32;;;;;;;4.93;2.70;;;;;;;;;;6215020;23;20012;-52
2021/06/12 13:21:58;;;;;;;3.13;2.20;;;;;;;;;;6215033;23;20032;-52
2021/06/12 13:24:25;;;;;;;3.73;2.30;;;;;;;;;;6215119;23;20004;-52
2021/06/12 13:26:52;;;;;;;2.90;1.90;;;;;;;;;;6215801;23;20008;-52
2021/06/12 13:29:19;;;;;;;6.37;3.43;;;;;;;;;;6217021;23;20000;-52
2021/06/12 13:31:48;;;;;;;4.10;2.60;;;;;;;;;;6216985;23;20008;-52
2021/06/12 13:34:24;;;;;;;6.53;2.50;;;;;;;;;;6217325;23;20012;-52
2021/06/12 13:36:52;;;;;;;9.43;4.20;;;;;;;;;;6216886;23;20005;-51
2021/06/12 13:39:28;;;;;;;5.47;3.93;;;;;;;;;;6216722;23;20371;-52
2021/06/12 13:42:17;;;;;;;9.53;4.53;;;;;;;;;;6217023;23;19997;-52
2021/06/12 13:45:00;;;;;;;6.60;3.77;;;;;;;;;;6216834;23;20321;-52
2021/06/12 13:47:27;;;;;;;6.43;3.80;;;;;;;;;;6216870;23;20004;-52
2021/06/12 13:50:02;;;;;;;4.63;3.53;;;;;;;;;;6216414;22;20017;-52
2021/06/12 13:52:36;;;;;;;6.60;3.13;;;;;;;;;;6216816;23;20004;-52
2021/06/12 13:55:08;;;;;;;7.63;3.10;;;;;;;;;;6216686;23;20016;-51
2021/06/12 13:57:36;;;;;;;6.73;2.77;;;;;;;;;;6216663;23;20490;-52
2021/06/12 14:00:04;;;;;;;3.83;2.30;;;;;;;;;;6216605;23;20008;-52
2021/06/12 14:02:30;;;;;;;5.67;2.87;;;;;;;;;;6216650;23;20001;-53
2021/06/12 14:04:57;;;;;;;4.60;2.20;;;;;;;;;;6216533;23;20317;-53
2021/06/12 14:07:24;;;;;;;4.87;2.57;;;;;;;;;;6216687;23;20001;-51
2021/06/12 14:09:51;;;;;;;3.87;2.30;;;;;;;;;;6216687;23;20028;-52
2021/06/12 14:12:18;;;;;;;5.90;2.30;;;;;;;;;;6216534;23;20008;-52
2021/06/12 14:14:45;;;;;;;9.37;2.33;;;;;;;;;;6216431;23;20040;-52
2021/06/12 14:17:12;;;;;;;5.30;1.93;;;;;;;;;;6216505;23;20376;-52
2021/06/12 14:19:41;;;;;;;5.20;3.20;;;;;;;;;;6216448;23;20063;-51
2021/06/12 14:22:08;;;;;;;6.40;2.87;;;;;;;;;;6216404;23;20001;-52
2021/06/12 14:24:34;;;;;;;5.70;3.00;;;;;;;;;;6216455;23;20008;-52
2021/06/12 14:27:01;;;;;;;7.70;3.47;;;;;;;;;;6216538;23;20492;-52
2021/06/12 14:29:32;;;;;;;6.17;3.37;;;;;;;;;;6216278;23;20080;-52
2021/06/12 14:31:59;;;;;;;6.40;2.83;;;;;;;;;;6216362;23;20001;-53
2021/06/12 14:34:25;;;;;;;5.77;3.13;;;;;;;;;;6216197;23;20040;-51
2021/06/12 14:36:52;;;;;;;8.73;3.20;;;;;;;;;;6216294;23;20000;-51
2021/06/12 14:39:19;;;;;;;5.37;3.57;;;;;;;;;;6215888;23;20078;-51
2021/06/12 14:41:46;;;;;;;4.90;2.67;;;;;;;;;;6215014;23;20001;-51
2021/06/12 14:44:14;;;;;;;4.17;2.60;;;;;;;;;;6216171;23;20016;-52
2021/06/12 14:46:41;;;;;;;3.40;2.43;;;;;;;;;;6216218;23;20428;-51
2021/06/12 14:49:08;;;;;;;6.87;5.33;;;;;;;;;;6215850;23;20257;-51
2021/06/12 14:51:36;;;;;;;5.67;2.50;;;;;;;;;;6216272;23;20001;-51
2021/06/12 14:54:04;;;;;;;4.13;2.13;;;;;;;;;;6216167;23;20392;-52
2021/06/12 14:56:30;;;;;;;4.90;2.60;;;;;;;;;;6216231;23;20478;-52
2021/06/12 14:58:57;;;;;;;3.70;2.50;;;;;;;;;;6216122;23;20004;-52